sensor_id;sensor_type;location;lat;lon;timestamp;P1;durP1;ratioP1;P2;durP2;ratioP2
8333;SDS011;4204;43.004;23.052;2023-09-30T00:00:58;6.80;;;5.27;;
8333;SDS011;4204;43.004;23.052;2023-09-30T00:03:27;6.93;;;5.43;;
8333;SDS011;4204;43.004;23.052;2023-09-30T00:05:55;7.23;;;5.70;;
8333;SDS011;4204;43.004;23.052;2023-09-30T00:08:22;8.20;;;6.10;;
8333;SDS011;4204;43.004;23.052;2023-09-30T00:10:51;7.27;;;5.80;;
8333;SDS011;4204;43.004;23.052;2023-09-30T00:13:20;7.57;;;5.90;;
8333;SDS011;4204;43.004;23.052;2023-09-30T00:15:48;10.10;;;6.03;;
8333;SDS011;4204;43.004;23.052;2023-09-30T00:18:15;8.50;;;5.77;;
8333;SDS011;4204;43.004;23.052;2023-09-30T00:20:44;8.73;;;5.97;;
8333;SDS011;4204;43.004;23.052;2023-09-30T00:23:12;8.17;;;5.73;;
8333;SDS011;4204;43.004;23.052;2023-09-30T00:25:39;11.10;;;6.33;;
8333;SDS011;4204;43.004;23.052;2023-09-30T00:28:08;8.93;;;6.00;;
8333;SDS011;4204;43.004;23.052;2023-09-30T00:30:35;8.20;;;5.80;;
8333;SDS011;4204;43.004;23.052;2023-09-30T00:33:04;8.50;;;5.80;;
8333;SDS011;4204;43.004;23.052;2023-09-30T00:35:32;9.77;;;6.33;;
8333;SDS011;4204;43.004;23.052;2023-09-30T00:38:01;7.93;;;5.90;;
8333;SDS011;4204;43.004;23.052;2023-09-30T00:40:29;8.00;;;5.67;;
8333;SDS011;4204;43.004;23.052;2023-09-30T00:42:58;10.23;;;5.97;;
8333;SDS011;4204;43.004;23.052;2023-09-30T00:45:25;8.27;;;5.97;;
8333;SDS011;4204;43.004;23.052;2023-09-30T00:47:53;12.53;;;5.63;;
8333;SDS011;4204;43.004;23.052;2023-09-30T00:50:22;7.73;;;5.83;;
8333;SDS011;4204;43.004;23.052;2023-09-30T00:52:50;8.83;;;5.93;;
8333;SDS011;4204;43.004;23.052;2023-09-30T00:55:19;8.63;;;6.20;;
8333;SDS011;4204;43.004;23.052;2023-09-30T00:57:47;9.70;;;6.10;;
8333;SDS011;4204;43.004;23.052;2023-09-30T01:00:15;9.87;;;5.60;;
8333;SDS011;4204;43.004;23.052;2023-09-30T01:02:45;7.23;;;5.73;;
8333;SDS011;4204;43.004;23.052;2023-09-30T01:05:13;8.97;;;6.20;;
8333;SDS011;4204;43.004;23.052;2023-09-30T01:07:40;7.77;;;6.10;;
8333;SDS011;4204;43.004;23.052;2023-09-30T01:10:08;8.67;;;6.10;;
8333;SDS011;4204;43.004;23.052;2023-09-30T01:12:38;7.73;;;5.93;;
8333;SDS011;4204;43.004;23.052;2023-09-30T01:15:06;7.23;;;5.60;;
8333;SDS011;4204;43.004;23.052;2023-09-30T01:17:34;6.90;;;5.80;;
8333;SDS011;4204;43.004;23.052;2023-09-30T01:20:02;7.63;;;5.73;;
8333;SDS011;4204;43.004;23.052;2023-09-30T01:22:33;8.70;;;6.00;;
8333;SDS011;4204;43.004;23.052;2023-09-30T01:25:01;8.93;;;5.90;;
8333;SDS011;4204;43.004;23.052;2023-09-30T01:27:30;9.70;;;6.00;;
8333;SDS011;4204;43.004;23.052;2023-09-30T01:30:01;9.17;;;6.13;;
8333;SDS011;4204;43.004;23.052;2023-09-30T01:32:31;8.53;;;6.33;;
8333;SDS011;4204;43.004;23.052;2023-09-30T01:34:58;8.53;;;5.83;;
8333;SDS011;4204;43.004;23.052;2023-09-30T01:37:26;9.13;;;6.30;;
8333;SDS011;4204;43.004;23.052;2023-09-30T01:39:57;7.17;;;5.63;;
8333;SDS011;4204;43.004;23.052;2023-09-30T01:42:24;9.17;;;5.73;;
8333;SDS011;4204;43.004;23.052;2023-09-30T01:44:53;7.03;;;5.77;;
8333;SDS011;4204;43.004;23.052;2023-09-30T01:47:22;7.60;;;5.57;;
8333;SDS011;4204;43.004;23.052;2023-09-30T01:49:51;8.60;;;6.00;;
8333;SDS011;4204;43.004;23.052;2023-09-30T01:52:20;6.70;;;5.93;;
8333;SDS011;4204;43.004;23.052;2023-09-30T01:54:48;11.80;;;6.20;;
8333;SDS011;4204;43.004;23.052;2023-09-30T01:57:17;7.97;;;6.50;;
8333;SDS011;4204;43.004;23.052;2023-09-30T01:59:44;10.27;;;6.27;;
8333;SDS011;4204;43.004;23.052;2023-09-30T02:02:12;8.77;;;6.17;;
8333;SDS011;4204;43.004;23.052;2023-09-30T02:04:40;6.97;;;6.20;;
8333;SDS011;4204;43.004;23.052;2023-09-30T02:07:07;7.33;;;6.10;;
8333;SDS011;4204;43.004;23.052;2023-09-30T02:09:35;12.07;;;6.20;;
8333;SDS011;4204;43.004;23.052;2023-09-30T02:12:03;9.03;;;6.27;;
8333;SDS011;4204;43.004;23.052;2023-09-30T02:14:35;12.17;;;6.17;;
8333;SDS011;4204;43.004;23.052;2023-09-30T02:17:04;16.73;;;5.77;;
8333;SDS011;4204;43.004;23.052;2023-09-30T02:19:32;11.67;;;6.07;;
8333;SDS011;4204;43.004;23.052;2023-09-30T02:21:59;6.47;;;5.47;;
8333;SDS011;4204;43.004;23.052;2023-09-30T02:24:28;6.93;;;5.30;;
8333;SDS011;4204;43.004;23.052;2023-09-30T02:26:55;6.83;;;5.97;;
8333;SDS011;4204;43.004;23.052;2023-09-30T02:29:24;10.80;;;6.03;;
8333;SDS011;4204;43.004;23.052;2023-09-30T02:31:53;7.23;;;6.20;;
8333;SDS011;4204;43.004;23.052;2023-09-30T02:34:21;12.70;;;6.47;;
8333;SDS011;4204;43.004;23.052;2023-09-30T02:36:50;11.30;;;5.80;;
8333;SDS011;4204;43.004;23.052;2023-09-30T02:39:17;6.93;;;5.60;;
8333;SDS011;4204;43.004;23.052;2023-09-30T02:41:45;7.67;;;6.00;;
8333;SDS011;4204;43.004;23.052;2023-09-30T02:44:15;8.93;;;6.00;;
8333;SDS011;4204;43.004;23.052;2023-09-30T02:46:43;9.23;;;5.87;;
8333;SDS011;4204;43.004;23.052;2023-09-30T02:49:13;10.57;;;6.20;;
8333;SDS011;4204;43.004;23.052;2023-09-30T02:51:40;9.13;;;5.63;;
8333;SDS011;4204;43.004;23.052;2023-09-30T02:54:08;6.97;;;5.70;;
8333;SDS011;4204;43.004;23.052;2023-09-30T02:56:36;9.93;;;6.23;;
8333;SDS011;4204;43.004;23.052;2023-09-30T02:59:04;9.93;;;5.60;;
8333;SDS011;4204;43.004;23.052;2023-09-30T03:01:33;7.33;;;5.47;;
8333;SDS011;4204;43.004;23.052;2023-09-30T03:04:01;7.70;;;5.87;;
8333;SDS011;4204;43.004;23.052;2023-09-30T03:06:34;9.60;;;5.83;;
8333;SDS011;4204;43.004;23.052;2023-09-30T03:09:04;8.33;;;5.93;;
8333;SDS011;4204;43.004;23.052;2023-09-30T03:11:32;10.57;;;6.00;;
8333;SDS011;4204;43.004;23.052;2023-09-30T03:14:00;8.27;;;6.03;;
8333;SDS011;4204;43.004;23.052;2023-09-30T03:16:28;10.27;;;5.80;;
8333;SDS011;4204;43.004;23.052;2023-09-30T03:18:56;10.43;;;5.93;;
8333;SDS011;4204;43.004;23.052;2023-09-30T03:21:24;8.03;;;5.93;;
8333;SDS011;4204;43.004;23.052;2023-09-30T03:23:53;10.23;;;5.97;;
8333;SDS011;4204;43.004;23.052;2023-09-30T03:26:21;8.73;;;5.63;;
8333;SDS011;4204;43.004;23.052;2023-09-30T03:28:49;9.60;;;6.27;;
8333;SDS011;4204;43.004;23.052;2023-09-30T03:31:19;7.37;;;5.63;;
8333;SDS011;4204;43.004;23.052;2023-09-30T03:33:46;8.53;;;6.23;;
8333;SDS011;4204;43.004;23.052;2023-09-30T03:36:14;8.83;;;6.07;;
8333;SDS011;4204;43.004;23.052;2023-09-30T03:38:41;6.90;;;5.63;;
8333;SDS011;4204;43.004;23.052;2023-09-30T03:41:10;8.33;;;6.10;;
8333;SDS011;4204;43.004;23.052;2023-09-30T03:43:39;9.33;;;6.13;;
8333;SDS011;4204;43.004;23.052;2023-09-30T03:46:07;9.23;;;5.83;;
8333;SDS011;4204;43.004;23.052;2023-09-30T03:48:35;8.07;;;5.77;;
8333;SDS011;4204;43.004;23.052;2023-09-30T03:51:09;7.30;;;5.50;;
8333;SDS011;4204;43.004;23.052;2023-09-30T03:53:39;7.97;;;5.37;;
8333;SDS011;4204;43.004;23.052;2023-09-30T03:56:07;7.67;;;5.80;;
8333;SDS011;4204;43.004;23.052;2023-09-30T03:58:39;10.87;;;6.17;;
8333;SDS011;4204;43.004;23.052;2023-09-30T04:01:07;10.27;;;6.40;;
8333;SDS011;4204;43.004;23.052;2023-09-30T04:03:37;6.83;;;5.63;;
8333;SDS011;4204;43.004;23.052;2023-09-30T04:06:05;11.07;;;6.03;;
8333;SDS011;4204;43.004;23.052;2023-09-30T04:08:33;7.83;;;5.70;;
8333;SDS011;4204;43.004;23.052;2023-09-30T04:11:01;7.50;;;5.53;;
8333;SDS011;4204;43.004;23.052;2023-09-30T04:13:30;9.73;;;5.67;;
8333;SDS011;4204;43.004;23.052;2023-09-30T04:16:00;5.93;;;5.33;;
8333;SDS011;4204;43.004;23.052;2023-09-30T04:18:28;10.93;;;5.73;;
8333;SDS011;4204;43.004;23.052;2023-09-30T04:20:56;9.30;;;6.40;;
8333;SDS011;4204;43.004;23.052;2023-09-30T04:23:24;9.67;;;6.40;;
8333;SDS011;4204;43.004;23.052;2023-09-30T04:25:53;9.87;;;6.10;;
8333;SDS011;4204;43.004;23.052;2023-09-30T04:28:21;10.27;;;5.93;;
8333;SDS011;4204;43.004;23.052;2023-09-30T04:30:50;7.87;;;5.80;;
8333;SDS011;4204;43.004;23.052;2023-09-30T04:33:20;9.67;;;6.13;;
8333;SDS011;4204;43.004;23.052;2023-09-30T04:35:50;8.27;;;6.03;;
8333;SDS011;4204;43.004;23.052;2023-09-30T04:38:18;9.50;;;6.03;;
8333;SDS011;4204;43.004;23.052;2023-09-30T04:40:46;10.97;;;6.47;;
8333;SDS011;4204;43.004;23.052;2023-09-30T04:43:17;9.47;;;5.97;;
8333;SDS011;4204;43.004;23.052;2023-09-30T04:45:45;12.17;;;6.13;;
8333;SDS011;4204;43.004;23.052;2023-09-30T04:48:15;7.70;;;6.17;;
8333;SDS011;4204;43.004;23.052;2023-09-30T04:50:44;7.50;;;5.90;;
8333;SDS011;4204;43.004;23.052;2023-09-30T04:53:12;8.33;;;5.90;;
8333;SDS011;4204;43.004;23.052;2023-09-30T04:55:41;10.90;;;6.40;;
8333;SDS011;4204;43.004;23.052;2023-09-30T04:58:09;8.20;;;5.73;;
8333;SDS011;4204;43.004;23.052;2023-09-30T05:00:38;11.77;;;5.80;;
8333;SDS011;4204;43.004;23.052;2023-09-30T05:03:06;9.17;;;6.00;;
8333;SDS011;4204;43.004;23.052;2023-09-30T05:05:34;7.40;;;5.73;;
8333;SDS011;4204;43.004;23.052;2023-09-30T05:08:04;10.60;;;5.97;;
8333;SDS011;4204;43.004;23.052;2023-09-30T05:10:32;9.33;;;5.53;;
8333;SDS011;4204;43.004;23.052;2023-09-30T05:13:00;7.93;;;5.87;;
8333;SDS011;4204;43.004;23.052;2023-09-30T05:15:28;11.87;;;6.90;;
8333;SDS011;4204;43.004;23.052;2023-09-30T05:17:58;8.13;;;6.10;;
8333;SDS011;4204;43.004;23.052;2023-09-30T05:20:26;7.07;;;5.67;;
8333;SDS011;4204;43.004;23.052;2023-09-30T05:22:54;9.97;;;5.70;;
8333;SDS011;4204;43.004;23.052;2023-09-30T05:25:23;11.00;;;5.40;;
8333;SDS011;4204;43.004;23.052;2023-09-30T05:27:54;7.80;;;6.13;;
8333;SDS011;4204;43.004;23.052;2023-09-30T05:30:22;8.63;;;5.87;;
8333;SDS011;4204;43.004;23.052;2023-09-30T05:32:51;11.10;;;6.10;;
8333;SDS011;4204;43.004;23.052;2023-09-30T05:35:20;12.90;;;6.37;;
8333;SDS011;4204;43.004;23.052;2023-09-30T05:37:48;9.43;;;6.90;;
8333;SDS011;4204;43.004;23.052;2023-09-30T05:40:18;7.67;;;6.57;;
8333;SDS011;4204;43.004;23.052;2023-09-30T05:42:53;11.80;;;8.17;;
8333;SDS011;4204;43.004;23.052;2023-09-30T05:45:23;8.93;;;7.07;;
8333;SDS011;4204;43.004;23.052;2023-09-30T05:47:52;11.23;;;7.93;;
8333;SDS011;4204;43.004;23.052;2023-09-30T05:50:21;7.83;;;6.90;;
8333;SDS011;4204;43.004;23.052;2023-09-30T05:52:52;12.83;;;8.50;;
8333;SDS011;4204;43.004;23.052;2023-09-30T05:55:21;11.30;;;8.17;;
8333;SDS011;4204;43.004;23.052;2023-09-30T05:57:49;10.43;;;8.03;;
8333;SDS011;4204;43.004;23.052;2023-09-30T06:00:19;16.03;;;8.03;;
8333;SDS011;4204;43.004;23.052;2023-09-30T06:02:48;14.43;;;8.57;;
8333;SDS011;4204;43.004;23.052;2023-09-30T06:05:17;12.23;;;7.73;;
8333;SDS011;4204;43.004;23.052;2023-09-30T06:07:45;10.77;;;8.33;;
8333;SDS011;4204;43.004;23.052;2023-09-30T06:10:13;10.53;;;7.30;;
8333;SDS011;4204;43.004;23.052;2023-09-30T06:12:45;17.13;;;7.60;;
8333;SDS011;4204;43.004;23.052;2023-09-30T06:15:13;11.47;;;7.40;;
8333;SDS011;4204;43.004;23.052;2023-09-30T06:17:43;14.53;;;7.93;;
8333;SDS011;4204;43.004;23.052;2023-09-30T06:20:11;8.40;;;7.50;;
8333;SDS011;4204;43.004;23.052;2023-09-30T06:22:43;10.23;;;7.70;;
8333;SDS011;4204;43.004;23.052;2023-09-30T06:25:13;10.53;;;7.80;;
8333;SDS011;4204;43.004;23.052;2023-09-30T06:27:42;12.47;;;8.43;;
8333;SDS011;4204;43.004;23.052;2023-09-30T06:30:10;9.03;;;7.37;;
8333;SDS011;4204;43.004;23.052;2023-09-30T06:32:39;10.40;;;8.13;;
8333;SDS011;4204;43.004;23.052;2023-09-30T06:35:09;12.63;;;6.00;;
8333;SDS011;4204;43.004;23.052;2023-09-30T06:37:37;8.73;;;6.53;;
8333;SDS011;4204;43.004;23.052;2023-09-30T06:40:05;8.87;;;6.57;;
8333;SDS011;4204;43.004;23.052;2023-09-30T06:42:35;12.70;;;6.07;;
8333;SDS011;4204;43.004;23.052;2023-09-30T06:45:04;8.23;;;6.20;;
8333;SDS011;4204;43.004;23.052;2023-09-30T06:47:33;7.47;;;6.03;;
8333;SDS011;4204;43.004;23.052;2023-09-30T06:50:02;12.80;;;6.33;;
8333;SDS011;4204;43.004;23.052;2023-09-30T06:52:36;8.73;;;6.27;;
8333;SDS011;4204;43.004;23.052;2023-09-30T06:55:07;7.83;;;5.57;;
8333;SDS011;4204;43.004;23.052;2023-09-30T06:57:35;9.30;;;5.90;;
8333;SDS011;4204;43.004;23.052;2023-09-30T07:00:07;9.17;;;5.63;;
8333;SDS011;4204;43.004;23.052;2023-09-30T07:02:35;7.50;;;5.73;;
8333;SDS011;4204;43.004;23.052;2023-09-30T07:05:05;12.60;;;6.30;;
8333;SDS011;4204;43.004;23.052;2023-09-30T07:07:35;7.20;;;5.07;;
8333;SDS011;4204;43.004;23.052;2023-09-30T07:10:04;12.03;;;6.07;;
8333;SDS011;4204;43.004;23.052;2023-09-30T07:12:33;10.07;;;5.60;;
8333;SDS011;4204;43.004;23.052;2023-09-30T07:15:02;6.23;;;5.43;;
8333;SDS011;4204;43.004;23.052;2023-09-30T07:17:31;6.40;;;5.33;;
8333;SDS011;4204;43.004;23.052;2023-09-30T07:20:00;10.07;;;5.23;;
8333;SDS011;4204;43.004;23.052;2023-09-30T07:22:28;6.73;;;5.33;;
8333;SDS011;4204;43.004;23.052;2023-09-30T07:24:57;7.03;;;5.10;;
8333;SDS011;4204;43.004;23.052;2023-09-30T07:27:25;11.33;;;5.33;;
8333;SDS011;4204;43.004;23.052;2023-09-30T07:29:53;9.57;;;5.40;;
8333;SDS011;4204;43.004;23.052;2023-09-30T07:32:20;8.10;;;5.07;;
8333;SDS011;4204;43.004;23.052;2023-09-30T07:34:49;5.80;;;4.97;;
8333;SDS011;4204;43.004;23.052;2023-09-30T07:37:17;5.83;;;5.20;;
8333;SDS011;4204;43.004;23.052;2023-09-30T07:39:46;6.73;;;5.37;;
8333;SDS011;4204;43.004;23.052;2023-09-30T07:42:15;8.93;;;5.03;;
8333;SDS011;4204;43.004;23.052;2023-09-30T07:44:43;8.27;;;5.27;;
8333;SDS011;4204;43.004;23.052;2023-09-30T07:47:11;9.27;;;5.60;;
8333;SDS011;4204;43.004;23.052;2023-09-30T07:49:39;7.87;;;5.27;;
8333;SDS011;4204;43.004;23.052;2023-09-30T07:52:06;11.87;;;5.47;;
8333;SDS011;4204;43.004;23.052;2023-09-30T07:54:34;10.63;;;4.93;;
8333;SDS011;4204;43.004;23.052;2023-09-30T07:57:02;8.87;;;5.53;;
8333;SDS011;4204;43.004;23.052;2023-09-30T07:59:32;8.37;;;5.47;;
8333;SDS011;4204;43.004;23.052;2023-09-30T08:02:00;9.00;;;5.10;;
8333;SDS011;4204;43.004;23.052;2023-09-30T08:04:30;8.97;;;5.17;;
8333;SDS011;4204;43.004;23.052;2023-09-30T08:06:58;11.77;;;5.07;;
8333;SDS011;4204;43.004;23.052;2023-09-30T08:09:25;7.33;;;5.00;;
8333;SDS011;4204;43.004;23.052;2023-09-30T08:11:53;9.60;;;4.97;;
8333;SDS011;4204;43.004;23.052;2023-09-30T08:14:22;7.67;;;4.97;;
8333;SDS011;4204;43.004;23.052;2023-09-30T08:16:51;7.23;;;4.87;;
8333;SDS011;4204;43.004;23.052;2023-09-30T08:19:19;10.67;;;4.67;;
8333;SDS011;4204;43.004;23.052;2023-09-30T08:21:46;11.27;;;4.87;;
8333;SDS011;4204;43.004;23.052;2023-09-30T08:24:15;5.33;;;4.57;;
8333;SDS011;4204;43.004;23.052;2023-09-30T08:26:43;8.23;;;5.27;;
8333;SDS011;4204;43.004;23.052;2023-09-30T08:29:11;6.37;;;4.77;;
8333;SDS011;4204;43.004;23.052;2023-09-30T08:31:39;6.83;;;5.10;;
8333;SDS011;4204;43.004;23.052;2023-09-30T08:34:08;8.00;;;5.30;;
8333;SDS011;4204;43.004;23.052;2023-09-30T08:36:36;8.20;;;5.00;;
8333;SDS011;4204;43.004;23.052;2023-09-30T08:39:04;7.60;;;5.07;;
8333;SDS011;4204;43.004;23.052;2023-09-30T08:41:33;4.93;;;4.43;;
8333;SDS011;4204;43.004;23.052;2023-09-30T08:44:01;9.07;;;4.70;;
8333;SDS011;4204;43.004;23.052;2023-09-30T08:46:31;8.47;;;4.37;;
8333;SDS011;4204;43.004;23.052;2023-09-30T08:49:00;11.37;;;4.60;;
8333;SDS011;4204;43.004;23.052;2023-09-30T08:51:31;12.30;;;5.03;;
8333;SDS011;4204;43.004;23.052;2023-09-30T08:53:59;8.77;;;4.77;;
8333;SDS011;4204;43.004;23.052;2023-09-30T08:56:30;5.93;;;4.30;;
8333;SDS011;4204;43.004;23.052;2023-09-30T08:59:00;9.13;;;4.57;;
8333;SDS011;4204;43.004;23.052;2023-09-30T09:01:30;5.90;;;4.30;;
8333;SDS011;4204;43.004;23.052;2023-09-30T09:03:58;8.00;;;4.90;;
8333;SDS011;4204;43.004;23.052;2023-09-30T09:06:26;12.63;;;5.07;;
8333;SDS011;4204;43.004;23.052;2023-09-30T09:08:55;11.03;;;5.80;;
8333;SDS011;4204;43.004;23.052;2023-09-30T09:11:41;6.47;;;5.73;;
8333;SDS011;4204;43.004;23.052;2023-09-30T09:14:08;7.77;;;5.50;;
8333;SDS011;4204;43.004;23.052;2023-09-30T09:16:36;8.40;;;5.93;;
8333;SDS011;4204;43.004;23.052;2023-09-30T09:19:13;8.00;;;6.40;;
8333;SDS011;4204;43.004;23.052;2023-09-30T09:21:53;9.27;;;6.43;;
8333;SDS011;4204;43.004;23.052;2023-09-30T09:24:27;7.03;;;5.80;;
8333;SDS011;4204;43.004;23.052;2023-09-30T09:27:09;13.43;;;6.40;;
8333;SDS011;4204;43.004;23.052;2023-09-30T09:29:37;12.83;;;5.93;;
8333;SDS011;4204;43.004;23.052;2023-09-30T09:32:07;10.13;;;5.50;;
8333;SDS011;4204;43.004;23.052;2023-09-30T09:34:39;13.53;;;6.00;;
8333;SDS011;4204;43.004;23.052;2023-09-30T09:37:13;7.20;;;5.90;;
8333;SDS011;4204;43.004;23.052;2023-09-30T09:39:50;9.00;;;5.80;;
8333;SDS011;4204;43.004;23.052;2023-09-30T09:42:26;12.13;;;5.80;;
8333;SDS011;4204;43.004;23.052;2023-09-30T09:44:55;13.17;;;4.97;;
8333;SDS011;4204;43.004;23.052;2023-09-30T09:47:25;13.27;;;5.37;;
8333;SDS011;4204;43.004;23.052;2023-09-30T09:49:54;11.87;;;5.10;;
8333;SDS011;4204;43.004;23.052;2023-09-30T09:52:25;7.03;;;5.13;;
8333;SDS011;4204;43.004;23.052;2023-09-30T09:54:56;6.83;;;5.13;;
8333;SDS011;4204;43.004;23.052;2023-09-30T09:57:26;6.83;;;4.67;;
8333;SDS011;4204;43.004;23.052;2023-09-30T09:59:58;7.83;;;5.13;;
8333;SDS011;4204;43.004;23.052;2023-09-30T10:02:26;6.13;;;5.23;;
8333;SDS011;4204;43.004;23.052;2023-09-30T10:04:55;7.83;;;5.33;;
8333;SDS011;4204;43.004;23.052;2023-09-30T10:07:25;8.67;;;5.17;;
8333;SDS011;4204;43.004;23.052;2023-09-30T10:09:57;9.30;;;4.87;;
8333;SDS011;4204;43.004;23.052;2023-09-30T10:12:27;6.03;;;4.87;;
8333;SDS011;4204;43.004;23.052;2023-09-30T10:18:06;11.17;;;4.87;;
8333;SDS011;4204;43.004;23.052;2023-09-30T10:20:36;7.93;;;4.33;;
8333;SDS011;4204;43.004;23.052;2023-09-30T10:23:23;7.23;;;4.80;;
8333;SDS011;4204;43.004;23.052;2023-09-30T10:26:13;7.50;;;4.00;;
8333;SDS011;4204;43.004;23.052;2023-09-30T10:28:44;8.77;;;4.70;;
8333;SDS011;4204;43.004;23.052;2023-09-30T10:31:14;5.53;;;4.13;;
8333;SDS011;4204;43.004;23.052;2023-09-30T10:36:46;8.03;;;4.83;;
8333;SDS011;4204;43.004;23.052;2023-09-30T10:39:19;6.10;;;4.63;;
8333;SDS011;4204;43.004;23.052;2023-09-30T10:42:52;8.70;;;4.80;;
8333;SDS011;4204;43.004;23.052;2023-09-30T10:48:34;7.33;;;4.87;;
8333;SDS011;4204;43.004;23.052;2023-09-30T10:51:13;6.80;;;4.47;;
8333;SDS011;4204;43.004;23.052;2023-09-30T10:53:43;7.30;;;4.60;;
8333;SDS011;4204;43.004;23.052;2023-09-30T10:56:12;5.27;;;4.77;;
8333;SDS011;4204;43.004;23.052;2023-09-30T10:58:43;8.33;;;4.60;;
8333;SDS011;4204;43.004;23.052;2023-09-30T11:01:12;4.83;;;4.37;;
8333;SDS011;4204;43.004;23.052;2023-09-30T11:03:41;8.83;;;5.07;;
8333;SDS011;4204;43.004;23.052;2023-09-30T11:06:11;6.23;;;4.30;;
8333;SDS011;4204;43.004;23.052;2023-09-30T11:08:50;5.63;;;4.53;;
8333;SDS011;4204;43.004;23.052;2023-09-30T11:11:21;4.77;;;4.10;;
8333;SDS011;4204;43.004;23.052;2023-09-30T11:14:01;13.37;;;4.63;;
8333;SDS011;4204;43.004;23.052;2023-09-30T11:16:40;7.67;;;4.67;;
8333;SDS011;4204;43.004;23.052;2023-09-30T11:19:09;9.30;;;4.77;;
8333;SDS011;4204;43.004;23.052;2023-09-30T11:21:37;7.67;;;4.70;;
8333;SDS011;4204;43.004;23.052;2023-09-30T11:24:05;9.90;;;4.70;;
8333;SDS011;4204;43.004;23.052;2023-09-30T11:26:34;12.97;;;4.47;;
8333;SDS011;4204;43.004;23.052;2023-09-30T11:29:06;5.50;;;4.40;;
8333;SDS011;4204;43.004;23.052;2023-09-30T11:31:37;7.80;;;4.40;;
8333;SDS011;4204;43.004;23.052;2023-09-30T11:34:05;9.00;;;5.20;;
8333;SDS011;4204;43.004;23.052;2023-09-30T11:36:35;9.43;;;5.53;;
8333;SDS011;4204;43.004;23.052;2023-09-30T11:39:05;4.97;;;4.30;;
8333;SDS011;4204;43.004;23.052;2023-09-30T11:41:36;7.23;;;4.90;;
8333;SDS011;4204;43.004;23.052;2023-09-30T11:44:07;6.90;;;4.90;;
8333;SDS011;4204;43.004;23.052;2023-09-30T11:46:49;6.37;;;4.70;;
8333;SDS011;4204;43.004;23.052;2023-09-30T11:49:27;7.10;;;4.43;;
8333;SDS011;4204;43.004;23.052;2023-09-30T11:51:57;7.53;;;4.20;;
8333;SDS011;4204;43.004;23.052;2023-09-30T11:54:32;7.67;;;4.60;;
8333;SDS011;4204;43.004;23.052;2023-09-30T11:57:03;6.93;;;4.67;;
8333;SDS011;4204;43.004;23.052;2023-09-30T11:59:32;10.10;;;5.20;;
8333;SDS011;4204;43.004;23.052;2023-09-30T12:02:00;8.00;;;5.33;;
8333;SDS011;4204;43.004;23.052;2023-09-30T12:04:28;7.67;;;5.27;;
8333;SDS011;4204;43.004;23.052;2023-09-30T12:06:56;7.07;;;4.60;;
8333;SDS011;4204;43.004;23.052;2023-09-30T12:09:24;5.27;;;4.60;;
8333;SDS011;4204;43.004;23.052;2023-09-30T12:11:53;9.90;;;4.87;;
8333;SDS011;4204;43.004;23.052;2023-09-30T12:14:21;7.67;;;4.57;;
8333;SDS011;4204;43.004;23.052;2023-09-30T12:16:50;6.00;;;4.77;;
8333;SDS011;4204;43.004;23.052;2023-09-30T12:19:18;6.57;;;4.90;;
8333;SDS011;4204;43.004;23.052;2023-09-30T12:21:48;6.43;;;4.30;;
8333;SDS011;4204;43.004;23.052;2023-09-30T12:24:16;11.10;;;4.93;;
8333;SDS011;4204;43.004;23.052;2023-09-30T12:26:47;10.53;;;5.10;;
8333;SDS011;4204;43.004;23.052;2023-09-30T12:29:16;9.80;;;5.13;;
8333;SDS011;4204;43.004;23.052;2023-09-30T12:31:45;10.40;;;5.07;;
8333;SDS011;4204;43.004;23.052;2023-09-30T12:34:15;8.43;;;4.70;;
8333;SDS011;4204;43.004;23.052;2023-09-30T12:36:43;6.80;;;4.90;;
8333;SDS011;4204;43.004;23.052;2023-09-30T12:39:11;8.47;;;5.07;;
8333;SDS011;4204;43.004;23.052;2023-09-30T12:41:39;6.47;;;5.10;;
8333;SDS011;4204;43.004;23.052;2023-09-30T12:44:08;5.13;;;4.63;;
8333;SDS011;4204;43.004;23.052;2023-09-30T12:46:36;7.20;;;4.70;;
8333;SDS011;4204;43.004;23.052;2023-09-30T12:49:06;8.10;;;5.30;;
8333;SDS011;4204;43.004;23.052;2023-09-30T12:51:36;8.87;;;5.00;;
8333;SDS011;4204;43.004;23.052;2023-09-30T12:54:04;7.53;;;4.80;;
8333;SDS011;4204;43.004;23.052;2023-09-30T12:56:32;6.07;;;5.03;;
8333;SDS011;4204;43.004;23.052;2023-09-30T12:59:00;6.00;;;5.00;;
8333;SDS011;4204;43.004;23.052;2023-09-30T13:01:28;6.97;;;5.00;;
8333;SDS011;4204;43.004;23.052;2023-09-30T13:03:57;12.90;;;5.57;;
8333;SDS011;4204;43.004;23.052;2023-09-30T13:06:25;8.30;;;5.27;;
8333;SDS011;4204;43.004;23.052;2023-09-30T13:08:56;6.57;;;5.30;;
8333;SDS011;4204;43.004;23.052;2023-09-30T13:11:24;8.00;;;5.90;;
8333;SDS011;4204;43.004;23.052;2023-09-30T13:13:52;7.17;;;5.10;;
8333;SDS011;4204;43.004;23.052;2023-09-30T13:16:20;6.53;;;5.07;;
8333;SDS011;4204;43.004;23.052;2023-09-30T13:18:48;7.07;;;5.60;;
8333;SDS011;4204;43.004;23.052;2023-09-30T13:21:18;5.73;;;5.10;;
8333;SDS011;4204;43.004;23.052;2023-09-30T13:23:46;7.67;;;5.20;;
8333;SDS011;4204;43.004;23.052;2023-09-30T13:26:15;8.80;;;5.20;;
8333;SDS011;4204;43.004;23.052;2023-09-30T13:28:43;9.53;;;5.10;;
8333;SDS011;4204;43.004;23.052;2023-09-30T13:31:11;6.40;;;5.20;;
8333;SDS011;4204;43.004;23.052;2023-09-30T13:33:38;7.20;;;4.90;;
8333;SDS011;4204;43.004;23.052;2023-09-30T13:36:06;7.57;;;4.93;;
8333;SDS011;4204;43.004;23.052;2023-09-30T13:38:34;8.13;;;5.20;;
8333;SDS011;4204;43.004;23.052;2023-09-30T13:41:03;8.37;;;4.90;;
8333;SDS011;4204;43.004;23.052;2023-09-30T13:43:32;7.50;;;4.97;;
8333;SDS011;4204;43.004;23.052;2023-09-30T13:46:02;8.10;;;5.00;;
8333;SDS011;4204;43.004;23.052;2023-09-30T13:48:32;8.70;;;4.87;;
8333;SDS011;4204;43.004;23.052;2023-09-30T13:51:03;5.17;;;4.73;;
8333;SDS011;4204;43.004;23.052;2023-09-30T13:53:32;6.90;;;4.57;;
8333;SDS011;4204;43.004;23.052;2023-09-30T13:56:00;8.33;;;4.50;;
8333;SDS011;4204;43.004;23.052;2023-09-30T13:58:29;7.33;;;4.97;;
8333;SDS011;4204;43.004;23.052;2023-09-30T14:00:59;7.13;;;4.80;;
8333;SDS011;4204;43.004;23.052;2023-09-30T14:03:27;8.97;;;4.73;;
8333;SDS011;4204;43.004;23.052;2023-09-30T14:05:57;8.20;;;5.00;;
8333;SDS011;4204;43.004;23.052;2023-09-30T14:08:25;5.40;;;4.70;;
8333;SDS011;4204;43.004;23.052;2023-09-30T14:10:53;8.80;;;4.97;;
8333;SDS011;4204;43.004;23.052;2023-09-30T14:13:22;9.07;;;4.90;;
8333;SDS011;4204;43.004;23.052;2023-09-30T14:15:50;10.97;;;4.90;;
8333;SDS011;4204;43.004;23.052;2023-09-30T14:18:20;8.10;;;5.00;;
8333;SDS011;4204;43.004;23.052;2023-09-30T14:20:48;9.50;;;5.20;;
8333;SDS011;4204;43.004;23.052;2023-09-30T14:23:16;8.63;;;4.40;;
8333;SDS011;4204;43.004;23.052;2023-09-30T14:25:44;10.07;;;4.63;;
8333;SDS011;4204;43.004;23.052;2023-09-30T14:28:13;7.30;;;5.00;;
8333;SDS011;4204;43.004;23.052;2023-09-30T14:30:41;8.27;;;4.90;;
8333;SDS011;4204;43.004;23.052;2023-09-30T14:33:10;4.70;;;4.13;;
8333;SDS011;4204;43.004;23.052;2023-09-30T14:35:39;5.60;;;4.47;;
8333;SDS011;4204;43.004;23.052;2023-09-30T14:38:10;16.03;;;5.33;;
8333;SDS011;4204;43.004;23.052;2023-09-30T14:40:38;17.13;;;5.77;;
8333;SDS011;4204;43.004;23.052;2023-09-30T14:43:07;8.27;;;4.93;;
8333;SDS011;4204;43.004;23.052;2023-09-30T14:45:38;9.63;;;4.70;;
8333;SDS011;4204;43.004;23.052;2023-09-30T14:48:07;10.43;;;5.03;;
8333;SDS011;4204;43.004;23.052;2023-09-30T14:50:36;7.80;;;4.67;;
8333;SDS011;4204;43.004;23.052;2023-09-30T14:53:06;7.60;;;4.97;;
8333;SDS011;4204;43.004;23.052;2023-09-30T14:55:34;12.90;;;4.67;;
8333;SDS011;4204;43.004;23.052;2023-09-30T14:58:02;5.70;;;4.70;;
8333;SDS011;4204;43.004;23.052;2023-09-30T15:00:30;8.47;;;4.37;;
8333;SDS011;4204;43.004;23.052;2023-09-30T15:02:59;7.43;;;4.47;;
8333;SDS011;4204;43.004;23.052;2023-09-30T15:05:27;11.73;;;4.87;;
8333;SDS011;4204;43.004;23.052;2023-09-30T15:07:56;7.23;;;4.93;;
8333;SDS011;4204;43.004;23.052;2023-09-30T15:10:27;8.10;;;4.50;;
8333;SDS011;4204;43.004;23.052;2023-09-30T15:12:55;9.43;;;4.73;;
8333;SDS011;4204;43.004;23.052;2023-09-30T15:15:23;10.67;;;4.30;;
8333;SDS011;4204;43.004;23.052;2023-09-30T15:17:51;9.87;;;4.77;;
8333;SDS011;4204;43.004;23.052;2023-09-30T15:20:20;9.20;;;4.70;;